sensor_id;sensor_type;location;lat;lon;timestamp;temperature;humidity
7622;DHT22;3852;52.284;8.032;2022-10-16T00:01:21;13.80;99.90
7622;DHT22;3852;52.284;8.032;2022-10-16T00:03:50;13.90;99.90
7622;DHT22;3852;52.284;8.032;2022-10-16T00:06:18;13.80;99.90
7622;DHT22;3852;52.284;8.032;2022-10-16T00:08:45;13.90;99.90
7622;DHT22;3852;52.284;8.032;2022-10-16T00:13:42;13.80;99.90
7622;DHT22;3852;52.284;8.032;2022-10-16T00:16:10;13.80;99.90
7622;DHT22;3852;52.284;8.032;2022-10-16T00:18:37;13.80;99.90
7622;DHT22;3852;52.284;8.032;2022-10-16T00:21:12;13.80;99.90
7622;DHT22;3852;52.284;8.032;2022-10-16T00:23:41;13.80;99.90
7622;DHT22;3852;52.284;8.032;2022-10-16T00:26:11;13.80;99.90
7622;DHT22;3852;52.284;8.032;2022-10-16T00:28:39;13.80;99.90
7622;DHT22;3852;52.284;8.032;2022-10-16T00:31:11;13.80;99.90
7622;DHT22;3852;52.284;8.032;2022-10-16T00:33:39;13.80;99.90
7622;DHT22;3852;52.284;8.032;2022-10-16T00:36:06;13.80;99.90
7622;DHT22;3852;52.284;8.032;2022-10-16T00:38:33;13.80;99.90
7622;DHT22;3852;52.284;8.032;2022-10-16T00:40:59;13.90;99.90
7622;DHT22;3852;52.284;8.032;2022-10-16T00:43:52;13.90;99.90
7622;DHT22;3852;52.284;8.032;2022-10-16T00:46:39;13.80;99.90
7622;DHT22;3852;52.284;8.032;2022-10-16T00:51:44;13.80;99.90
7622;DHT22;3852;52.284;8.032;2022-10-16T00:54:14;13.80;99.90
7622;DHT22;3852;52.284;8.032;2022-10-16T00:56:43;13.80;99.90
7622;DHT22;3852;52.284;8.032;2022-10-16T01:01:51;13.80;99.90
7622;DHT22;3852;52.284;8.032;2022-10-16T01:04:18;13.80;99.90
7622;DHT22;3852;52.284;8.032;2022-10-16T01:06:59;13.80;99.90
7622;DHT22;3852;52.284;8.032;2022-10-16T01:12:50;13.80;99.90
7622;DHT22;3852;52.284;8.032;2022-10-16T01:15:41;13.80;99.90
7622;DHT22;3852;52.284;8.032;2022-10-16T01:18:11;13.80;99.90
7622;DHT22;3852;52.284;8.032;2022-10-16T01:20:47;13.80;99.90
7622;DHT22;3852;52.284;8.032;2022-10-16T01:23:36;13.80;99.90
7622;DHT22;3852;52.284;8.032;2022-10-16T01:29:11;13.80;99.90
7622;DHT22;3852;52.284;8.032;2022-10-16T01:31:48;13.70;99.90
7622;DHT22;3852;52.284;8.032;2022-10-16T01:34:22;13.70;99.90
7622;DHT22;3852;52.284;8.032;2022-10-16T01:36:59;13.70;99.90
7622;DHT22;3852;52.284;8.032;2022-10-16T01:39:31;13.70;99.90
7622;DHT22;3852;52.284;8.032;2022-10-16T01:42:06;13.70;99.90
7622;DHT22;3852;52.284;8.032;2022-10-16T01:44:35;13.70;99.90
7622;DHT22;3852;52.284;8.032;2022-10-16T01:47:04;13.70;99.90
7622;DHT22;3852;52.284;8.032;2022-10-16T01:49:32;13.80;99.90
7622;DHT22;3852;52.284;8.032;2022-10-16T01:52:04;13.80;99.90
7622;DHT22;3852;52.284;8.032;2022-10-16T01:54:35;13.80;99.90
7622;DHT22;3852;52.284;8.032;2022-10-16T01:57:04;13.80;99.90
7622;DHT22;3852;52.284;8.032;2022-10-16T01:59:33;13.70;99.90
7622;DHT22;3852;52.284;8.032;2022-10-16T02:02:05;13.70;99.90
7622;DHT22;3852;52.284;8.032;2022-10-16T02:04:42;13.70;99.90
7622;DHT22;3852;52.284;8.032;2022-10-16T02:07:08;13.60;99.90
7622;DHT22;3852;52.284;8.032;2022-10-16T02:09:37;13.60;99.90
7622;DHT22;3852;52.284;8.032;2022-10-16T02:12:09;13.70;99.90
7622;DHT22;3852;52.284;8.032;2022-10-16T02:14:38;13.70;99.90
7622;DHT22;3852;52.284;8.032;2022-10-16T02:17:19;13.60;99.90
7622;DHT22;3852;52.284;8.032;2022-10-16T02:19:48;13.60;99.90
7622;DHT22;3852;52.284;8.032;2022-10-16T02:22:36;13.60;99.90
7622;DHT22;3852;52.284;8.032;2022-10-16T02:30:47;13.70;99.90
7622;DHT22;3852;52.284;8.032;2022-10-16T02:33:17;13.70;99.90
7622;DHT22;3852;52.284;8.032;2022-10-16T02:35:46;13.60;99.90
7622;DHT22;3852;52.284;8.032;2022-10-16T02:38:15;13.60;99.90
7622;DHT22;3852;52.284;8.032;2022-10-16T02:40:42;13.70;99.90
7622;DHT22;3852;52.284;8.032;2022-10-16T02:43:08;13.60;99.90
7622;DHT22;3852;52.284;8.032;2022-10-16T02:45:35;13.60;99.90
7622;DHT22;3852;52.284;8.032;2022-10-16T02:48:00;13.50;99.90
7622;DHT22;3852;52.284;8.032;2022-10-16T02:50:26;13.50;99.90
7622;DHT22;3852;52.284;8.032;2022-10-16T02:52:52;13.50;99.90
7622;DHT22;3852;52.284;8.032;2022-10-16T02:55:18;13.50;99.90
7622;DHT22;3852;52.284;8.032;2022-10-16T02:57:44;13.50;99.90
7622;DHT22;3852;52.284;8.032;2022-10-16T03:00:12;13.50;99.90
7622;DHT22;3852;52.284;8.032;2022-10-16T03:02:39;13.60;99.90
7622;DHT22;3852;52.284;8.032;2022-10-16T03:05:05;13.60;99.90
7622;DHT22;3852;52.284;8.032;2022-10-16T03:07:31;13.60;99.90
7622;DHT22;3852;52.284;8.032;2022-10-16T03:09:57;13.60;99.90
7622;DHT22;3852;52.284;8.032;2022-10-16T03:12:27;13.60;99.90
7622;DHT22;3852;52.284;8.032;2022-10-16T03:14:53;13.60;99.90
7622;DHT22;3852;52.284;8.032;2022-10-16T03:17:18;13.60;99.90
7622;DHT22;3852;52.284;8.032;2022-10-16T03:19:44;13.60;99.90
7622;DHT22;3852;52.284;8.032;2022-10-16T03:22:10;13.60;99.90
7622;DHT22;3852;52.284;8.032;2022-10-16T03:24:36;13.50;99.90
7622;DHT22;3852;52.284;8.032;2022-10-16T03:27:02;13.60;99.90
7622;DHT22;3852;52.284;8.032;2022-10-16T03:29:28;13.60;99.90
7622;DHT22;3852;52.284;8.032;2022-10-16T03:31:55;13.60;99.90
7622;DHT22;3852;52.284;8.032;2022-10-16T03:34:21;13.60;99.90
7622;DHT22;3852;52.284;8.032;2022-10-16T03:36:48;13.60;99.90
7622;DHT22;3852;52.284;8.032;2022-10-16T03:39:13;13.60;99.90
7622;DHT22;3852;52.284;8.032;2022-10-16T03:41:39;13.60;99.90
7622;DHT22;3852;52.284;8.032;2022-10-16T03:44:05;13.60;99.90
7622;DHT22;3852;52.284;8.032;2022-10-16T03:46:31;13.60;99.90
7622;DHT22;3852;52.284;8.032;2022-10-16T03:48:57;13.60;99.90
7622;DHT22;3852;52.284;8.032;2022-10-16T03:51:23;13.60;99.90
7622;DHT22;3852;52.284;8.032;2022-10-16T03:53:48;13.50;99.90
7622;DHT22;3852;52.284;8.032;2022-10-16T03:56:14;13.60;99.90
7622;DHT22;3852;52.284;8.032;2022-10-16T03:58:40;13.60;99.90
7622;DHT22;3852;52.284;8.032;2022-10-16T04:01:06;13.60;99.90
7622;DHT22;3852;52.284;8.032;2022-10-16T04:03:32;13.60;99.90
7622;DHT22;3852;52.284;8.032;2022-10-16T04:05:58;13.50;99.90
7622;DHT22;3852;52.284;8.032;2022-10-16T04:08:24;13.60;99.90
7622;DHT22;3852;52.284;8.032;2022-10-16T04:10:50;13.60;99.90
7622;DHT22;3852;52.284;8.032;2022-10-16T04:13:15;13.60;99.90
7622;DHT22;3852;52.284;8.032;2022-10-16T04:15:41;13.60;99.90
7622;DHT22;3852;52.284;8.032;2022-10-16T04:18:07;13.60;99.90
7622;DHT22;3852;52.284;8.032;2022-10-16T04:20:34;13.60;99.90
7622;DHT22;3852;52.284;8.032;2022-10-16T04:23:00;13.60;99.90
7622;DHT22;3852;52.284;8.032;2022-10-16T04:25:26;13.60;99.90
7622;DHT22;3852;52.284;8.032;2022-10-16T04:27:55;13.50;99.90
7622;DHT22;3852;52.284;8.032;2022-10-16T04:30:21;13.50;99.90
7622;DHT22;3852;52.284;8.032;2022-10-16T04:32:49;13.50;99.90
7622;DHT22;3852;52.284;8.032;2022-10-16T04:35:19;13.50;99.90
7622;DHT22;3852;52.284;8.032;2022-10-16T04:37:45;13.50;99.90
7622;DHT22;3852;52.284;8.032;2022-10-16T04:40:11;13.50;99.90
7622;DHT22;3852;52.284;8.032;2022-10-16T04:42:37;13.60;99.90
7622;DHT22;3852;52.284;8.032;2022-10-16T04:45:04;13.50;99.90
7622;DHT22;3852;52.284;8.032;2022-10-16T04:47:31;13.60;99.90
7622;DHT22;3852;52.284;8.032;2022-10-16T04:49:57;13.60;99.90
7622;DHT22;3852;52.284;8.032;2022-10-16T04:52:23;13.60;99.90
7622;DHT22;3852;52.284;8.032;2022-10-16T04:54:50;13.60;99.90
7622;DHT22;3852;52.284;8.032;2022-10-16T04:57:16;13.60;99.90
7622;DHT22;3852;52.284;8.032;2022-10-16T04:59:42;13.50;99.90
7622;DHT22;3852;52.284;8.032;2022-10-16T05:02:08;13.50;99.90
7622;DHT22;3852;52.284;8.032;2022-10-16T05:04:34;13.50;99.90
7622;DHT22;3852;52.284;8.032;2022-10-16T05:07:00;13.50;99.90
7622;DHT22;3852;52.284;8.032;2022-10-16T05:09:25;13.60;99.90
7622;DHT22;3852;52.284;8.032;2022-10-16T05:11:51;13.60;99.90
7622;DHT22;3852;52.284;8.032;2022-10-16T05:14:17;13.70;99.90
7622;DHT22;3852;52.284;8.032;2022-10-16T05:16:43;13.60;99.90
7622;DHT22;3852;52.284;8.032;2022-10-16T05:19:08;13.60;99.90
7622;DHT22;3852;52.284;8.032;2022-10-16T05:21:34;13.70;99.90
7622;DHT22;3852;52.284;8.032;2022-10-16T05:24:00;13.70;99.90
7622;DHT22;3852;52.284;8.032;2022-10-16T05:26:26;13.70;99.90
7622;DHT22;3852;52.284;8.032;2022-10-16T05:28:51;13.60;99.90
7622;DHT22;3852;52.284;8.032;2022-10-16T05:31:17;13.60;99.90
7622;DHT22;3852;52.284;8.032;2022-10-16T05:33:43;13.60;99.90
7622;DHT22;3852;52.284;8.032;2022-10-16T05:36:10;13.60;99.90
7622;DHT22;3852;52.284;8.032;2022-10-16T05:38:36;13.50;99.90
7622;DHT22;3852;52.284;8.032;2022-10-16T05:41:04;13.60;99.90
7622;DHT22;3852;52.284;8.032;2022-10-16T05:43:31;13.60;99.90
7622;DHT22;3852;52.284;8.032;2022-10-16T05:46:02;13.60;99.90
7622;DHT22;3852;52.284;8.032;2022-10-16T05:48:30;13.60;99.90
7622;DHT22;3852;52.284;8.032;2022-10-16T05:51:07;13.60;99.90
7622;DHT22;3852;52.284;8.032;2022-10-16T05:53:38;13.70;99.90
7622;DHT22;3852;52.284;8.032;2022-10-16T05:56:06;13.60;99.90
7622;DHT22;3852;52.284;8.032;2022-10-16T05:58:34;13.60;99.90
7622;DHT22;3852;52.284;8.032;2022-10-16T06:01:02;13.60;99.90
7622;DHT22;3852;52.284;8.032;2022-10-16T06:03:29;13.70;99.90
7622;DHT22;3852;52.284;8.032;2022-10-16T06:05:55;13.60;99.90
7622;DHT22;3852;52.284;8.032;2022-10-16T06:08:22;13.60;99.90
7622;DHT22;3852;52.284;8.032;2022-10-16T06:10:49;13.70;99.90
7622;DHT22;3852;52.284;8.032;2022-10-16T06:13:25;13.60;99.90
7622;DHT22;3852;52.284;8.032;2022-10-16T06:15:51;13.50;99.90
7622;DHT22;3852;52.284;8.032;2022-10-16T06:18:16;13.60;99.90
7622;DHT22;3852;52.284;8.032;2022-10-16T06:20:44;13.60;99.90
7622;DHT22;3852;52.284;8.032;2022-10-16T06:23:10;13.60;99.90
7622;DHT22;3852;52.284;8.032;2022-10-16T06:25:36;13.60;99.90
7622;DHT22;3852;52.284;8.032;2022-10-16T06:28:02;13.60;99.90
7622;DHT22;3852;52.284;8.032;2022-10-16T06:30:28;13.60;99.90
7622;DHT22;3852;52.284;8.032;2022-10-16T06:32:53;13.60;99.90
7622;DHT22;3852;52.284;8.032;2022-10-16T06:35:19;13.60;99.90
7622;DHT22;3852;52.284;8.032;2022-10-16T06:37:45;13.60;99.90
7622;DHT22;3852;52.284;8.032;2022-10-16T06:40:11;13.60;99.90
7622;DHT22;3852;52.284;8.032;2022-10-16T06:42:37;13.60;99.90
7622;DHT22;3852;52.284;8.032;2022-10-16T06:45:02;13.70;99.90
7622;DHT22;3852;52.284;8.032;2022-10-16T06:47:28;13.70;99.90
7622;DHT22;3852;52.284;8.032;2022-10-16T06:49:54;13.60;99.90
7622;DHT22;3852;52.284;8.032;2022-10-16T06:52:20;13.60;99.90
7622;DHT22;3852;52.284;8.032;2022-10-16T06:54:46;13.70;99.90
7622;DHT22;3852;52.284;8.032;2022-10-16T06:57:11;13.70;99.90
7622;DHT22;3852;52.284;8.032;2022-10-16T06:59:37;13.70;99.90
7622;DHT22;3852;52.284;8.032;2022-10-16T07:02:03;13.70;99.90
7622;DHT22;3852;52.284;8.032;2022-10-16T07:04:29;13.70;99.90
7622;DHT22;3852;52.284;8.032;2022-10-16T07:06:54;13.80;99.90
7622;DHT22;3852;52.284;8.032;2022-10-16T07:09:20;13.70;99.90
7622;DHT22;3852;52.284;8.032;2022-10-16T07:11:46;13.80;99.90
7622;DHT22;3852;52.284;8.032;2022-10-16T07:14:17;13.80;99.90
7622;DHT22;3852;52.284;8.032;2022-10-16T07:16:44;13.80;99.90
7622;DHT22;3852;52.284;8.032;2022-10-16T07:19:09;13.80;99.90
7622;DHT22;3852;52.284;8.032;2022-10-16T07:21:37;13.80;99.90
7622;DHT22;3852;52.284;8.032;2022-10-16T07:24:06;13.80;99.90
7622;DHT22;3852;52.284;8.032;2022-10-16T07:26:36;13.80;99.90
7622;DHT22;3852;52.284;8.032;2022-10-16T07:29:06;13.70;99.90
7622;DHT22;3852;52.284;8.032;2022-10-16T07:31:32;13.80;99.90
7622;DHT22;3852;52.284;8.032;2022-10-16T07:34:00;13.70;99.90
7622;DHT22;3852;52.284;8.032;2022-10-16T07:36:25;13.70;99.90
7622;DHT22;3852;52.284;8.032;2022-10-16T07:38:51;13.70;99.90
7622;DHT22;3852;52.284;8.032;2022-10-16T07:41:19;13.80;99.90
7622;DHT22;3852;52.284;8.032;2022-10-16T07:43:49;13.80;99.90
7622;DHT22;3852;52.284;8.032;2022-10-16T07:46:16;13.90;99.90
7622;DHT22;3852;52.284;8.032;2022-10-16T07:48:43;13.90;99.90
7622;DHT22;3852;52.284;8.032;2022-10-16T07:51:20;13.90;99.90
7622;DHT22;3852;52.284;8.032;2022-10-16T07:53:49;14.00;99.90
7622;DHT22;3852;52.284;8.032;2022-10-16T07:56:16;14.10;99.90
7622;DHT22;3852;52.284;8.032;2022-10-16T07:58:43;14.20;99.90
7622;DHT22;3852;52.284;8.032;2022-10-16T08:01:11;14.20;99.90
7622;DHT22;3852;52.284;8.032;2022-10-16T08:03:41;14.30;99.90
7622;DHT22;3852;52.284;8.032;2022-10-16T08:06:07;14.30;99.90
7622;DHT22;3852;52.284;8.032;2022-10-16T08:08:36;14.40;99.90
7622;DHT22;3852;52.284;8.032;2022-10-16T08:11:02;14.40;99.90
7622;DHT22;3852;52.284;8.032;2022-10-16T08:13:30;14.40;99.90
7622;DHT22;3852;52.284;8.032;2022-10-16T08:15:56;14.50;99.90
7622;DHT22;3852;52.284;8.032;2022-10-16T08:18:22;14.60;99.90
7622;DHT22;3852;52.284;8.032;2022-10-16T08:20:48;14.60;99.90
7622;DHT22;3852;52.284;8.032;2022-10-16T08:23:20;14.60;99.90
7622;DHT22;3852;52.284;8.032;2022-10-16T08:25:46;14.70;99.90
7622;DHT22;3852;52.284;8.032;2022-10-16T08:28:12;14.70;99.90
7622;DHT22;3852;52.284;8.032;2022-10-16T08:30:38;14.70;99.90
7622;DHT22;3852;52.284;8.032;2022-10-16T08:33:04;14.80;99.90
7622;DHT22;3852;52.284;8.032;2022-10-16T08:35:30;14.80;99.90
7622;DHT22;3852;52.284;8.032;2022-10-16T08:37:55;14.80;99.90
7622;DHT22;3852;52.284;8.032;2022-10-16T08:40:29;14.80;99.90
7622;DHT22;3852;52.284;8.032;2022-10-16T08:46:10;15.00;99.90
7622;DHT22;3852;52.284;8.032;2022-10-16T08:48:50;15.00;99.90
7622;DHT22;3852;52.284;8.032;2022-10-16T08:51:32;15.10;99.90
7622;DHT22;3852;52.284;8.032;2022-10-16T08:54:37;15.20;99.90
7622;DHT22;3852;52.284;8.032;2022-10-16T08:57:11;15.20;99.90
7622;DHT22;3852;52.284;8.032;2022-10-16T08:59:39;15.30;99.90
7622;DHT22;3852;52.284;8.032;2022-10-16T09:02:32;15.30;99.90
7622;DHT22;3852;52.284;8.032;2022-10-16T09:05:27;15.30;99.90
7622;DHT22;3852;52.284;8.032;2022-10-16T09:20:29;15.80;99.90
7622;DHT22;3852;52.284;8.032;2022-10-16T09:23:18;15.80;99.90
7622;DHT22;3852;52.284;8.032;2022-10-16T09:25:48;15.90;99.90
7622;DHT22;3852;52.284;8.032;2022-10-16T09:28:16;15.90;99.90
7622;DHT22;3852;52.284;8.032;2022-10-16T09:30:43;16.10;99.90
7622;DHT22;3852;52.284;8.032;2022-10-16T09:33:11;16.10;99.90
7622;DHT22;3852;52.284;8.032;2022-10-16T09:35:45;16.20;99.90
7622;DHT22;3852;52.284;8.032;2022-10-16T09:38:33;16.30;99.90
7622;DHT22;3852;52.284;8.032;2022-10-16T09:41:23;16.40;99.90
7622;DHT22;3852;52.284;8.032;2022-10-16T09:43:52;16.50;99.90
7622;DHT22;3852;52.284;8.032;2022-10-16T09:46:32;16.60;99.90
7622;DHT22;3852;52.284;8.032;2022-10-16T09:49:01;16.70;99.90
7622;DHT22;3852;52.284;8.032;2022-10-16T09:51:37;16.60;99.90
7622;DHT22;3852;52.284;8.032;2022-10-16T09:56:36;16.60;99.90
7622;DHT22;3852;52.284;8.032;2022-10-16T09:59:15;16.60;99.90
7622;DHT22;3852;52.284;8.032;2022-10-16T10:04:17;16.60;99.90
7622;DHT22;3852;52.284;8.032;2022-10-16T10:07:02;16.60;99.90
7622;DHT22;3852;52.284;8.032;2022-10-16T10:09:37;16.50;99.90
7622;DHT22;3852;52.284;8.032;2022-10-16T10:12:05;16.60;99.90
7622;DHT22;3852;52.284;8.032;2022-10-16T10:14:53;16.60;99.90
7622;DHT22;3852;52.284;8.032;2022-10-16T10:17:28;16.50;99.90
7622;DHT22;3852;52.284;8.032;2022-10-16T10:19:59;16.50;99.90
7622;DHT22;3852;52.284;8.032;2022-10-16T10:27:43;16.60;99.90
7622;DHT22;3852;52.284;8.032;2022-10-16T10:50:36;16.70;99.90
7622;DHT22;3852;52.284;8.032;2022-10-16T10:53:35;16.80;99.90
7622;DHT22;3852;52.284;8.032;2022-10-16T11:02:40;17.10;99.90
7622;DHT22;3852;52.284;8.032;2022-10-16T11:05:43;17.30;99.90
7622;DHT22;3852;52.284;8.032;2022-10-16T11:08:19;17.50;99.90
7622;DHT22;3852;52.284;8.032;2022-10-16T11:16:23;17.20;99.90
7622;DHT22;3852;52.284;8.032;2022-10-16T11:19:12;17.10;99.90
7622;DHT22;3852;52.284;8.032;2022-10-16T11:21:47;17.10;99.90
7622;DHT22;3852;52.284;8.032;2022-10-16T11:27:23;17.00;99.90
7622;DHT22;3852;52.284;8.032;2022-10-16T11:30:22;16.90;99.90
7622;DHT22;3852;52.284;8.032;2022-10-16T11:33:10;16.90;99.90
7622;DHT22;3852;52.284;8.032;2022-10-16T11:35:48;17.00;99.90
7622;DHT22;3852;52.284;8.032;2022-10-16T11:38:32;16.90;99.90
7622;DHT22;3852;52.284;8.032;2022-10-16T11:41:39;16.90;99.90
7622;DHT22;3852;52.284;8.032;2022-10-16T11:56:16;17.60;99.90
7622;DHT22;3852;52.284;8.032;2022-10-16T11:59:02;17.50;99.90
7622;DHT22;3852;52.284;8.032;2022-10-16T12:01:46;17.70;99.90
7622;DHT22;3852;52.284;8.032;2022-10-16T12:04:22;17.90;99.90
7622;DHT22;3852;52.284;8.032;2022-10-16T12:07:09;18.10;99.90
7622;DHT22;3852;52.284;8.032;2022-10-16T12:09:40;18.20;99.90
7622;DHT22;3852;52.284;8.032;2022-10-16T12:12:26;18.10;99.90
7622;DHT22;3852;52.284;8.032;2022-10-16T12:15:17;18.00;99.90
7622;DHT22;3852;52.284;8.032;2022-10-16T12:17:47;17.90;99.90
7622;DHT22;3852;52.284;8.032;2022-10-16T12:28:21;17.80;99.90
7622;DHT22;3852;52.284;8.032;2022-10-16T12:31:03;17.70;99.90
7622;DHT22;3852;52.284;8.032;2022-10-16T12:33:33;17.50;99.90
7622;DHT22;3852;52.284;8.032;2022-10-16T12:36:05;17.50;99.90
7622;DHT22;3852;52.284;8.032;2022-10-16T12:38:52;17.40;99.90
7622;DHT22;3852;52.284;8.032;2022-10-16T12:41:28;17.20;99.90
7622;DHT22;3852;52.284;8.032;2022-10-16T12:43:55;17.20;99.90
7622;DHT22;3852;52.284;8.032;2022-10-16T12:46:26;17.10;99.90
7622;DHT22;3852;52.284;8.032;2022-10-16T12:51:39;17.10;99.90
7622;DHT22;3852;52.284;8.032;2022-10-16T12:54:16;17.20;99.90
7622;DHT22;3852;52.284;8.032;2022-10-16T12:57:06;17.20;99.90
7622;DHT22;3852;52.284;8.032;2022-10-16T13:15:37;17.40;99.90
7622;DHT22;3852;52.284;8.032;2022-10-16T13:18:22;17.60;99.90
7622;DHT22;3852;52.284;8.032;2022-10-16T13:30:20;18.20;99.90
7622;DHT22;3852;52.284;8.032;2022-10-16T13:33:03;18.40;99.90
7622;DHT22;3852;52.284;8.032;2022-10-16T13:35:35;18.40;99.90
7622;DHT22;3852;52.284;8.032;2022-10-16T13:38:14;18.40;99.90
7622;DHT22;3852;52.284;8.032;2022-10-16T13:43:26;18.10;99.90
7622;DHT22;3852;52.284;8.032;2022-10-16T13:48:33;18.00;99.90
7622;DHT22;3852;52.284;8.032;2022-10-16T13:51:13;17.90;99.90
7622;DHT22;3852;52.284;8.032;2022-10-16T13:53:44;17.90;99.90
7622;DHT22;3852;52.284;8.032;2022-10-16T13:56:17;17.90;99.90
7622;DHT22;3852;52.284;8.032;2022-10-16T13:58:44;18.00;99.90
7622;DHT22;3852;52.284;8.032;2022-10-16T14:01:28;18.00;99.90
7622;DHT22;3852;52.284;8.032;2022-10-16T14:04:07;18.00;99.90
7622;DHT22;3852;52.284;8.032;2022-10-16T14:06:36;18.20;99.90
7622;DHT22;3852;52.284;8.032;2022-10-16T14:09:13;18.20;99.90
7622;DHT22;3852;52.284;8.032;2022-10-16T14:11:49;18.30;99.90
7622;DHT22;3852;52.284;8.032;2022-10-16T14:14:18;18.20;99.90
7622;DHT22;3852;52.284;8.032;2022-10-16T14:16:45;18.10;99.90
7622;DHT22;3852;52.284;8.032;2022-10-16T14:19:30;18.10;99.90
7622;DHT22;3852;52.284;8.032;2022-10-16T14:21:58;18.20;99.90
7622;DHT22;3852;52.284;8.032;2022-10-16T14:24:33;18.30;99.90
7622;DHT22;3852;52.284;8.032;2022-10-16T14:27:00;18.20;99.90
7622;DHT22;3852;52.284;8.032;2022-10-16T14:29:28;18.20;99.90
7622;DHT22;3852;52.284;8.032;2022-10-16T14:32:04;18.20;99.90
7622;DHT22;3852;52.284;8.032;2022-10-16T14:34:35;18.20;99.90
7622;DHT22;3852;52.284;8.032;2022-10-16T14:37:24;18.10;99.90
7622;DHT22;3852;52.284;8.032;2022-10-16T14:39:52;18.00;99.90
7622;DHT22;3852;52.284;8.032;2022-10-16T14:42:20;18.00;99.90
7622;DHT22;3852;52.284;8.032;2022-10-16T14:44:50;18.00;99.90
7622;DHT22;3852;52.284;8.032;2022-10-16T14:47:23;17.90;99.90
7622;DHT22;3852;52.284;8.032;2022-10-16T14:49:52;18.00;99.90
7622;DHT22;3852;52.284;8.032;2022-10-16T14:52:20;17.90;99.90
7622;DHT22;3852;52.284;8.032;2022-10-16T14:54:50;17.90;99.90
7622;DHT22;3852;52.284;8.032;2022-10-16T14:57:22;17.90;99.90
7622;DHT22;3852;52.284;8.032;2022-10-16T14:59:49;18.00;99.90
7622;DHT22;3852;52.284;8.032;2022-10-16T15:02:33;18.00;99.90
7622;DHT22;3852;52.284;8.032;2022-10-16T15:05:21;17.90;99.90
7622;DHT22;3852;52.284;8.032;2022-10-16T15:07:49;17.80;99.90
7622;DHT22;3852;52.284;8.032;2022-10-16T15:10:17;17.80;99.90
7622;DHT22;3852;52.284;8.032;2022-10-16T15:12:43;17.80;99.90
7622;DHT22;3852;52.284;8.032;2022-10-16T15:15:25;17.70;99.90
7622;DHT22;3852;52.284;8.032;2022-10-16T15:17:59;17.70;99.90
7622;DHT22;3852;52.284;8.032;2022-10-16T15:20:32;17.60;99.90
7622;DHT22;3852;52.284;8.032;2022-10-16T15:23:25;17.70;99.90
7622;DHT22;3852;52.284;8.032;2022-10-16T15:25:54;17.60;99.90
7622;DHT22;3852;52.284;8.032;2022-10-16T15:28:22;17.60;99.90
7622;DHT22;3852;52.284;8.032;2022-10-16T15:30:50;17.50;99.90
7622;DHT22;3852;52.284;8.032;2022-10-16T15:33:22;17.50;99.90
7622;DHT22;3852;52.284;8.032;2022-10-16T15:35:52;17.40;99.90
7622;DHT22;3852;52.284;8.032;2022-10-16T15:38:20;17.40;99.90
7622;DHT22;3852;52.284;8.032;2022-10-16T15:40:48;17.40;99.90
7622;DHT22;3852;52.284;8.032;2022-10-16T15:43:15;17.30;99.90
7622;DHT22;3852;52.284;8.032;2022-10-16T15:45:41;17.30;99.90
7622;DHT22;3852;52.284;8.032;2022-10-16T15:48:10;17.20;99.90
7622;DHT22;3852;52.284;8.032;2022-10-16T15:50:38;17.10;99.90
7622;DHT22;3852;52.284;8.032;2022-10-16T15:53:04;17.00;99.90
7622;DHT22;3852;52.284;8.032;2022-10-16T15:55:30;16.90;99.90
7622;DHT22;3852;52.284;8.032;2022-10-16T15:57:56;16.70;99.90
7622;DHT22;3852;52.284;8.032;2022-10-16T16:00:22;16.60;99.90
7622;DHT22;3852;52.284;8.032;2022-10-16T16:02:52;16.50;99.90
7622;DHT22;3852;52.284;8.032;2022-10-16T16:05:19;16.30;99.90
7622;DHT22;3852;52.284;8.032;2022-10-16T16:07:46;16.30;99.90
7622;DHT22;3852;52.284;8.032;2022-10-16T16:10:12;16.20;99.90
7622;DHT22;3852;52.284;8.032;2022-10-16T16:12:38;16.20;99.90
7622;DHT22;3852;52.284;8.032;2022-10-16T16:15:06;16.20;99.90
7622;DHT22;3852;52.284;8.032;2022-10-16T16:17:34;16.10;99.90
7622;DHT22;3852;52.284;8.032;2022-10-16T16:20:00;16.10;99.90
7622;DHT22;3852;52.284;8.032;2022-10-16T16:22:27;16.00;99.90
7622;DHT22;3852;52.284;8.032;2022-10-16T16:24:52;15.90;99.90
7622;DHT22;3852;52.284;8.032;2022-10-16T16:27:18;15.90;99.90
7622;DHT22;3852;52.284;8.032;2022-10-16T16:29:45;15.80;99.90
7622;DHT22;3852;52.284;8.032;2022-10-16T16:32:12;15.80;99.90
7622;DHT22;3852;52.284;8.032;2022-10-16T16:34:37;15.70;99.90
7622;DHT22;3852;52.284;8.032;2022-10-16T16:37:03;15.70;99.90
7622;DHT22;3852;52.284;8.032;2022-10-16T16:39:29;15.60;99.90
7622;DHT22;3852;52.284;8.032;2022-10-16T16:41:56;15.60;99.90
7622;DHT22;3852;52.284;8.032;2022-10-16T16:44:24;15.50;99.90
7622;DHT22;3852;52.284;8.032;2022-10-16T16:46:49;15.50;99.90
7622;DHT22;3852;52.284;8.032;2022-10-16T16:49:15;15.40;99.90
7622;DHT22;3852;52.284;8.032;2022-10-16T16:51:42;15.30;99.90
7622;DHT22;3852;52.284;8.032;2022-10-16T16:54:09;15.30;99.90
7622;DHT22;3852;52.284;8.032;2022-10-16T16:56:36;15.30;99.90
7622;DHT22;3852;52.284;8.032;2022-10-16T16:59:02;15.20;99.90
7622;DHT22;3852;52.284;8.032;2022-10-16T17:01:28;15.10;99.90
7622;DHT22;3852;52.284;8.032;2022-10-16T17:03:56;15.10;99.90
7622;DHT22;3852;52.284;8.032;2022-10-16T17:06:25;15.20;99.90
7622;DHT22;3852;52.284;8.032;2022-10-16T17:08:52;15.10;99.90
7622;DHT22;3852;52.284;8.032;2022-10-16T17:11:26;15.10;99.90
7622;DHT22;3852;52.284;8.032;2022-10-16T17:13:54;15.10;99.90
7622;DHT22;3852;52.284;8.032;2022-10-16T17:16:33;14.90;99.90
7622;DHT22;3852;52.284;8.032;2022-10-16T17:19:01;14.90;99.90
7622;DHT22;3852;52.284;8.032;2022-10-16T17:21:28;14.90;99.90
7622;DHT22;3852;52.284;8.032;2022-10-16T17:23:56;14.90;99.90
7622;DHT22;3852;52.284;8.032;2022-10-16T17:26:22;14.90;99.90
7622;DHT22;3852;52.284;8.032;2022-10-16T17:28:52;15.00;99.90
7622;DHT22;3852;52.284;8.032;2022-10-16T17:31:30;14.90;99.90
7622;DHT22;3852;52.284;8.032;2022-10-16T17:33:59;14.90;99.90
7622;DHT22;3852;52.284;8.032;2022-10-16T17:36:27;14.90;99.90
7622;DHT22;3852;52.284;8.032;2022-10-16T17:39:00;14.90;99.90
7622;DHT22;3852;52.284;8.032;2022-10-16T17:41:28;14.90;99.90
7622;DHT22;3852;52.284;8.032;2022-10-16T17:43:55;14.90;99.90
7622;DHT22;3852;52.284;8.032;2022-10-16T17:46:22;14.90;99.90
7622;DHT22;3852;52.284;8.032;2022-10-16T17:48:50;14.80;99.90
7622;DHT22;3852;52.284;8.032;2022-10-16T17:51:23;14.90;99.90
7622;DHT22;3852;52.284;8.032;2022-10-16T17:53:53;14.80;99.90
7622;DHT22;3852;52.284;8.032;2022-10-16T17:56:21;14.80;99.90
7622;DHT22;3852;52.284;8.032;2022-10-16T17:58:54;14.70;99.90
7622;DHT22;3852;52.284;8.032;2022-10-16T18:01:21;14.60;99.90
7622;DHT22;3852;52.284;8.032;2022-10-16T18:03:54;14.60;99.90
7622;DHT22;3852;52.284;8.032;2022-10-16T18:06:25;14.60;99.90
7622;DHT22;3852;52.284;8.032;2022-10-16T18:08:52;14.50;99.90
7622;DHT22;3852;52.284;8.032;2022-10-16T18:11:20;14.50;99.90
7622;DHT22;3852;52.284;8.032;2022-10-16T18:13:46;14.50;99.90
7622;DHT22;3852;52.284;8.032;2022-10-16T18:16:13;14.50;99.90
7622;DHT22;3852;52.284;8.032;2022-10-16T18:18:41;14.50;99.90
7622;DHT22;3852;52.284;8.032;2022-10-16T18:21:11;14.50;99.90
7622;DHT22;3852;52.284;8.032;2022-10-16T18:23:38;14.50;99.90
7622;DHT22;3852;52.284;8.032;2022-10-16T18:26:06;14.50;99.90
7622;DHT22;3852;52.284;8.032;2022-10-16T18:28:32;14.50;99.90
7622;DHT22;3852;52.284;8.032;2022-10-16T18:31:04;14.50;99.90
7622;DHT22;3852;52.284;8.032;2022-10-16T18:33:32;14.50;99.90
7622;DHT22;3852;52.284;8.032;2022-10-16T18:36:03;14.60;99.90
7622;DHT22;3852;52.284;8.032;2022-10-16T18:38:33;14.60;99.90